createdAt,value
2023-02-27T00:00:00.357Z,1030.1
2023-02-27T00:05:00.307Z,1030.1
2023-02-27T00:10:00.456Z,1030.2
2023-02-27T00:15:00.190Z,1030.2
2023-02-27T00:20:00.743Z,1030.2
2023-02-27T00:25:00.128Z,1030.2
2023-02-27T00:30:00.331Z,1030.1
2023-02-27T00:35:00.340Z,1030.1
2023-02-27T00:40:01.066Z,1030.1
2023-02-27T00:45:00.348Z,1030
2023-02-27T00:50:00.343Z,1030.1
2023-02-27T00:55:00.090Z,1030
2023-02-27T01:00:00.229Z,1030.1
2023-02-27T01:05:00.325Z,1030.1
2023-02-27T01:10:00.568Z,1030.1
2023-02-27T01:14:59.979Z,1030.1
2023-02-27T01:20:00.201Z,1030.1
2023-02-27T01:25:00.398Z,1030
2023-02-27T01:30:00.420Z,1030.1
2023-02-27T01:35:00.209Z,1030.1
2023-02-27T01:40:00.313Z,1030.1
2023-02-27T01:45:00.151Z,1030
2023-02-27T01:49:59.929Z,1029.9
2023-02-27T01:54:59.962Z,1030
2023-02-27T02:00:00.007Z,1029.9
2023-02-27T02:05:00.533Z,1029.9
2023-02-27T02:10:01.246Z,1029.9
2023-02-27T02:15:00.473Z,1029.9
2023-02-27T02:20:00.098Z,1030
2023-02-27T02:25:00.116Z,1030
2023-02-27T02:30:00.043Z,1030
2023-02-27T02:35:34.870Z,1030
2023-02-27T02:40:14.433Z,1030
2023-02-27T02:45:00.235Z,1030
2023-02-27T02:49:59.992Z,1030
2023-02-27T02:54:59.958Z,1030
2023-02-27T03:00:01.677Z,1030
2023-02-27T03:04:59.970Z,1030
2023-02-27T03:09:59.995Z,1030.1
2023-02-27T03:15:00.014Z,1030
2023-02-27T03:20:03.083Z,1030.1
2023-02-27T03:25:01.485Z,1030
2023-02-27T03:29:59.973Z,1030
2023-02-27T03:34:59.957Z,1030
2023-02-27T03:40:00.220Z,1029.9
2023-02-27T03:44:59.978Z,1029.9
2023-02-27T03:50:00.457Z,1029.9
2023-02-27T03:55:00.087Z,1029.9
2023-02-27T04:00:00.384Z,1029.9
2023-02-27T04:05:00.123Z,1030
2023-02-27T04:09:59.981Z,1030.1
2023-02-27T04:14:59.811Z,1030.1
2023-02-27T04:20:00.140Z,1030.1
2023-02-27T04:24:59.964Z,1030.2
2023-02-27T04:30:00.144Z,1030.2
2023-02-27T04:34:59.860Z,1030.3
2023-02-27T04:39:59.983Z,1030.3
2023-02-27T04:45:01.625Z,1030.3
2023-02-27T04:49:59.922Z,1030.3
2023-02-27T04:55:03.221Z,1030.3
2023-02-27T05:00:01.818Z,1030.4
2023-02-27T05:05:02.812Z,1030.4
2023-02-27T05:09:59.820Z,1030.4
2023-02-27T05:14:59.936Z,1030.4
2023-02-27T05:20:00.030Z,1030.5
2023-02-27T05:25:02.973Z,1030.5
2023-02-27T05:29:59.802Z,1030.5
2023-02-27T05:34:59.941Z,1030.6
2023-02-27T05:39:59.971Z,1030.6
2023-02-27T05:45:00.006Z,1030.7
2023-02-27T05:50:02.327Z,1030.7
2023-02-27T05:54:59.677Z,1030.7
2023-02-27T05:59:59.885Z,1030.7
2023-02-27T06:05:00.208Z,1030.8
2023-02-27T06:09:59.702Z,1030.8
2023-02-27T06:15:00.054Z,1030.9
2023-02-27T06:20:00.018Z,1031
2023-02-27T06:25:00.177Z,1031
2023-02-27T06:29:59.893Z,1031.1
2023-02-27T06:34:59.987Z,1031.2
2023-02-27T06:39:59.980Z,1031.2
2023-02-27T06:45:00.054Z,1031.2
2023-02-27T06:49:59.739Z,1031.2
2023-02-27T06:54:59.971Z,1031.2
2023-02-27T07:00:00.035Z,1031.2
2023-02-27T07:04:59.873Z,1031.3
2023-02-27T07:09:59.763Z,1031.3
2023-02-27T07:14:59.877Z,1031.3
2023-02-27T07:19:59.665Z,1031.4
2023-02-27T07:24:59.831Z,1031.4
2023-02-27T07:30:00.007Z,1031.4
2023-02-27T07:34:59.878Z,1031.5
2023-02-27T07:39:59.894Z,1031.5
2023-02-27T07:45:00.097Z,1031.4
2023-02-27T07:49:59.748Z,1031.4
2023-02-27T07:55:00.038Z,1031.4
2023-02-27T07:59:59.751Z,1031.4
2023-02-27T08:04:59.791Z,1031.5
2023-02-27T08:09:59.920Z,1031.5
2023-02-27T08:14:59.891Z,1031.6
2023-02-27T08:19:59.940Z,1031.5
2023-02-27T08:24:59.832Z,1031.6
2023-02-27T08:29:59.818Z,1031.6
2023-02-27T08:34:59.790Z,1031.7
2023-02-27T08:39:59.834Z,1031.7
2023-02-27T08:44:59.732Z,1031.8
2023-02-27T08:50:00.038Z,1031.9
2023-02-27T08:54:59.922Z,1031.9
2023-02-27T09:00:00.397Z,1031.9
2023-02-27T09:04:59.617Z,1031.9
2023-02-27T09:09:59.544Z,1031.9
2023-02-27T09:14:59.868Z,1032
2023-02-27T09:19:59.661Z,1032
2023-02-27T09:24:59.812Z,1032
2023-02-27T09:30:00.199Z,1032
2023-02-27T09:34:59.603Z,1032.1
2023-02-27T09:39:59.904Z,1032
2023-02-27T09:44:59.610Z,1032
2023-02-27T09:49:59.603Z,1032
2023-02-27T09:54:59.853Z,1032
2023-02-27T10:00:03.487Z,1032
2023-02-27T10:04:59.654Z,1032
2023-02-27T10:09:59.505Z,1032.1
2023-02-27T10:14:59.664Z,1032.1
2023-02-27T10:19:59.547Z,1032.1
2023-02-27T10:24:59.615Z,1032
2023-02-27T10:30:11.149Z,1032
2023-02-27T10:34:59.765Z,1032
2023-02-27T10:40:01.367Z,1031.9
2023-02-27T10:44:59.825Z,1031.9
2023-02-27T10:49:59.741Z,1031.9
2023-02-27T10:54:59.796Z,1031.9
2023-02-27T11:00:00.528Z,1031.9
2023-02-27T11:04:59.969Z,1031.9
2023-02-27T11:10:01.370Z,1031.8
2023-02-27T11:15:00.775Z,1031.8
2023-02-27T11:20:00.799Z,1031.7
2023-02-27T11:24:59.381Z,1031.6
2023-02-27T11:30:04.143Z,1031.6
2023-02-27T11:34:59.884Z,1031.6
2023-02-27T11:39:59.729Z,1031.4
2023-02-27T11:45:00.579Z,1031.2
2023-02-27T11:49:59.537Z,1031.4
2023-02-27T11:54:59.734Z,1031.3
2023-02-27T11:59:59.664Z,1031.2
2023-02-27T12:04:59.445Z,1031.2
2023-02-27T12:10:01.941Z,1031.2
2023-02-27T12:15:04.442Z,1031.1
2023-02-27T12:20:08.693Z,1031
2023-02-27T12:24:59.355Z,1031
2023-02-27T12:29:59.693Z,1031.1
2023-02-27T12:34:59.520Z,1031.1
2023-02-27T12:39:59.505Z,1030.9
2023-02-27T12:44:59.674Z,1030.9
2023-02-27T12:50:01.982Z,1031
2023-02-27T12:55:02.994Z,1030.9
2023-02-27T12:59:59.810Z,1030.9
2023-02-27T13:04:59.576Z,1030.9
2023-02-27T13:10:05.097Z,1030.9
2023-02-27T13:14:59.405Z,1030.7
2023-02-27T13:19:59.339Z,1030.9
2023-02-27T13:24:59.377Z,1030.8
2023-02-27T13:29:59.623Z,1030.7
2023-02-27T13:35:01.767Z,1030.8
2023-02-27T13:39:59.566Z,1030.7
2023-02-27T13:44:59.372Z,1030.7
2023-02-27T13:49:59.329Z,1030.7
2023-02-27T13:55:06.301Z,1030.8
2023-02-27T14:00:03.127Z,1030.6
2023-02-27T14:05:00.255Z,1030.7
2023-02-27T14:10:01.072Z,1030.7
2023-02-27T14:14:59.504Z,1030.6
2023-02-27T14:19:59.935Z,1030.7
2023-02-27T14:25:02.809Z,1030.6
2023-02-27T14:30:01.688Z,1030.6
2023-02-27T14:34:59.329Z,1030.7
2023-02-27T14:40:00.715Z,1030.7
2023-02-27T14:44:59.402Z,1030.7
2023-02-27T14:49:59.238Z,1030.7
2023-02-27T14:55:11.336Z,1030.6
2023-02-27T14:59:59.302Z,1030.5
2023-02-27T15:04:59.403Z,1030.7
2023-02-27T15:09:59.230Z,1030.5
2023-02-27T15:15:01.347Z,1030.6
2023-02-27T15:19:59.634Z,1030.6
2023-02-27T15:24:59.746Z,1030.6
2023-02-27T15:29:59.630Z,1030.6
2023-02-27T15:34:59.524Z,1030.6
2023-02-27T15:40:00.207Z,1030.6
2023-02-27T15:44:59.131Z,1030.7
2023-02-27T15:49:59.278Z,1030.6
2023-02-27T15:54:59.147Z,1030.7
2023-02-27T15:59:59.748Z,1030.7
2023-02-27T16:04:59.638Z,1030.7
2023-02-27T16:09:59.180Z,1030.7
2023-02-27T16:15:22.838Z,1030.8
2023-02-27T16:20:01.320Z,1030.7
2023-02-27T16:24:59.227Z,1030.8
2023-02-27T16:29:59.402Z,1030.7
2023-02-27T16:35:00.672Z,1030.7
2023-02-27T16:39:59.240Z,1030.8
2023-02-27T16:44:59.188Z,1030.7
2023-02-27T16:49:59.346Z,1030.8
2023-02-27T16:54:59.279Z,1030.8
2023-02-27T16:59:59.193Z,1030.8
2023-02-27T17:04:59.511Z,1030.9
2023-02-27T17:09:59.710Z,1030.9
2023-02-27T17:14:59.453Z,1030.9
2023-02-27T17:19:59.240Z,1030.9
2023-02-27T17:24:59.318Z,1030.9
2023-02-27T17:29:59.386Z,1031
2023-02-27T17:34:59.405Z,1030.9
2023-02-27T17:39:59.516Z,1031.1
2023-02-27T17:44:59.561Z,1031
2023-02-27T17:49:59.312Z,1031.1
2023-02-27T17:54:59.138Z,1031.1
2023-02-27T17:59:59.190Z,1031.1
2023-02-27T18:04:59.376Z,1031.1
2023-02-27T18:09:59.482Z,1031.2
2023-02-27T18:14:59.595Z,1031.3
2023-02-27T18:19:59.052Z,1031.3
2023-02-27T18:24:59.379Z,1031.3
2023-02-27T18:29:59.293Z,1031.4
2023-02-27T18:34:59.115Z,1031.3
2023-02-27T18:39:59.172Z,1031.4
2023-02-27T18:44:59.131Z,1031.4
2023-02-27T18:49:59.292Z,1031.4
2023-02-27T18:54:59.309Z,1031.5
2023-02-27T19:00:00.671Z,1031.6
2023-02-27T19:05:00.742Z,1031.6
2023-02-27T19:10:00.367Z,1031.6
2023-02-27T19:15:00.511Z,1031.6
2023-02-27T19:20:00.497Z,1031.7
2023-02-27T19:25:00.434Z,1031.7
2023-02-27T19:30:00.397Z,1031.7
2023-02-27T19:35:00.583Z,1031.7
2023-02-27T19:40:00.719Z,1031.7
2023-02-27T19:45:00.404Z,1031.7
2023-02-27T19:50:00.687Z,1031.8
2023-02-27T19:55:00.617Z,1031.8
2023-02-27T20:00:00.397Z,1031.8
2023-02-27T20:05:00.602Z,1031.8
2023-02-27T20:10:00.688Z,1031.9
2023-02-27T20:15:00.446Z,1031.9
2023-02-27T20:20:00.536Z,1031.9
2023-02-27T20:25:00.408Z,1031.9
2023-02-27T20:30:00.324Z,1031.9
2023-02-27T20:35:00.361Z,1031.9
2023-02-27T20:40:00.376Z,1031.8
2023-02-27T20:45:00.357Z,1031.8
2023-02-27T20:50:00.318Z,1031.8
2023-02-27T20:55:00.540Z,1031.8
2023-02-27T21:00:00.823Z,1031.8
2023-02-27T21:05:00.440Z,1031.9
2023-02-27T21:10:00.558Z,1031.9
2023-02-27T21:15:00.344Z,1031.9
2023-02-27T21:20:00.405Z,1031.9
2023-02-27T21:25:00.207Z,1031.9
2023-02-27T21:30:00.356Z,1031.9
2023-02-27T21:35:00.670Z,1031.9
2023-02-27T21:40:00.186Z,1031.9
2023-02-27T21:45:00.313Z,1031.9
2023-02-27T21:50:00.366Z,1032
2023-02-27T21:55:00.644Z,1032
2023-02-27T22:00:00.247Z,1032.1
2023-02-27T22:05:00.661Z,1032.1
2023-02-27T22:10:00.515Z,1032.1
2023-02-27T22:15:00.543Z,1032.1
2023-02-27T22:20:00.343Z,1032.1
2023-02-27T22:25:00.416Z,1032.1
2023-02-27T22:30:00.392Z,1032.1
2023-02-27T22:35:00.811Z,1032.1
2023-02-27T22:40:00.141Z,1032.1
2023-02-27T22:45:00.659Z,1032.1
2023-02-27T22:50:00.861Z,1032.2
2023-02-27T22:55:00.397Z,1032.1
2023-02-27T23:00:00.415Z,1032.1
2023-02-27T23:05:00.097Z,1032.2
2023-02-27T23:10:00.810Z,1032.2
2023-02-27T23:15:00.368Z,1032.2
2023-02-27T23:20:00.412Z,1032.1
2023-02-27T23:25:00.443Z,1032.2
2023-02-27T23:29:59.992Z,1032.3
2023-02-27T23:35:00.546Z,1032.2
2023-02-27T23:40:00.151Z,1032.2
2023-02-27T23:45:00.153Z,1032.2
2023-02-27T23:50:00.352Z,1032.2
2023-02-27T23:55:00.591Z,1032.3
